Time;durP1;ratioP1;P1;durP2;ratioP2;P2;SDS_P1;SDS_P2;PMS_P1;PMS_P2;Temp;Humidity;BMP_temperature;BMP_pressure;BME280_temperature;BME280_humidity;BME280_pressure;Samples;Min_cycle;Max_cycle;Signal;HPM_P1;HPM_P2
2023/04/13 00:00:43;;;;;;;1.35;0.40;;;7.10;92.20;;;;;;4739161;30;20422;-85
2023/04/13 00:03:11;;;;;;;0.47;0.10;;;7.10;92.20;;;;;;4744151;30;20052;-85
2023/04/13 00:05:41;;;;;;;1.15;0.30;;;7.10;92.20;;;;;;4753283;30;20056;-85
2023/04/13 00:08:08;;;;;;;0.65;0.20;;;7.10;92.30;;;;;;4755486;30;20048;-84
2023/04/13 00:10:41;;;;;;;2.47;0.20;;;7.10;92.30;;;;;;4753151;30;20048;-85
2023/04/13 00:13:13;;;;;;;1.00;0.30;;;7.00;92.40;;;;;;4743964;30;20066;-85
2023/04/13 00:15:42;;;;;;;1.10;0.30;;;7.00;92.50;;;;;;4765144;30;20082;-85
2023/04/13 00:18:10;;;;;;;1.05;0.20;;;7.00;92.60;;;;;;4742054;30;20062;-85
2023/04/13 00:20:39;;;;;;;2.50;0.32;;;6.90;92.70;;;;;;4750671;30;20139;-85
2023/04/13 00:23:07;;;;;;;1.42;0.30;;;6.90;92.70;;;;;;4759608;30;20053;-85
2023/04/13 00:25:34;;;;;;;1.10;0.30;;;6.90;92.70;;;;;;4724077;30;20052;-84
2023/04/13 00:28:05;;;;;;;2.30;0.93;;;7.00;92.70;;;;;;4738274;30;20078;-84
2023/04/13 00:30:32;;;;;;;1.25;0.20;;;7.00;92.70;;;;;;4753245;30;20052;-85
2023/04/13 00:33:02;;;;;;;2.65;0.30;;;7.00;92.70;;;;;;4733238;30;20148;-86
2023/04/13 00:35:30;;;;;;;1.27;0.20;;;7.00;92.70;;;;;;4763024;30;20429;-84
2023/04/13 00:37:57;;;;;;;2.53;0.30;;;7.00;92.60;;;;;;4740900;30;20138;-84
2023/04/13 00:40:26;;;;;;;0.80;0.30;;;7.10;92.70;;;;;;4751415;30;20048;-85
2023/04/13 00:42:54;;;;;;;0.73;0.20;;;7.10;92.60;;;;;;4729266;30;20123;-84
2023/04/13 00:45:21;;;;;;;1.25;0.30;;;7.10;92.60;;;;;;4738111;30;20411;-85
2023/04/13 00:47:49;;;;;;;0.50;0.20;;;7.10;92.50;;;;;;4744475;30;20581;-84
2023/04/13 00:50:22;;;;;;;0.57;0.20;;;7.10;92.50;;;;;;4737794;30;20562;-84
2023/04/13 00:52:49;;;;;;;0.57;0.20;;;7.20;92.60;;;;;;4748680;30;20500;-84
2023/04/13 00:55:19;;;;;;;1.20;0.20;;;7.20;92.50;;;;;;4743571;30;20082;-95
2023/04/13 00:57:51;;;;;;;0.70;0.15;;;7.20;92.50;;;;;;4754265;30;20066;-95
2023/04/13 01:00:23;;;;;;;0.75;0.20;;;7.20;92.50;;;;;;4754247;30;20056;-95
2023/04/13 01:02:53;;;;;;;3.00;0.28;;;7.10;92.60;;;;;;4753877;30;20044;-96
2023/04/13 01:05:21;;;;;;;1.00;0.28;;;7.10;92.70;;;;;;4738955;30;20107;-95
2023/04/13 01:07:59;;;;;;;0.57;0.20;;;7.10;92.80;;;;;;4754366;30;20536;-96
2023/04/13 01:11:04;;;;;;;0.60;0.20;;;7.00;92.90;;;;;;4753768;30;20101;-95
2023/04/13 01:13:59;;;;;;;0.93;0.20;;;7.00;93.10;;;;;;4753717;30;20179;-95
2023/04/13 01:16:33;;;;;;;0.50;0.20;;;7.00;93.20;;;;;;4754104;30;20063;-96
2023/04/13 01:19:12;;;;;;;1.40;0.50;;;6.90;93.20;;;;;;4753870;30;20060;-96
2023/04/13 01:21:43;;;;;;;0.50;0.22;;;6.90;93.50;;;;;;4754004;30;20143;-94
2023/04/13 01:24:28;;;;;;;1.98;0.32;;;6.90;93.70;;;;;;4738716;30;20085;-94
2023/04/13 01:27:19;;;;;;;0.82;0.30;;;6.80;94.00;;;;;;4741876;30;20052;-94
2023/04/13 01:29:55;;;;;;;2.60;0.20;;;6.80;94.00;;;;;;4766518;30;20044;-94
2023/04/13 01:32:29;;;;;;;1.25;0.30;;;6.80;94.10;;;;;;4753180;30;20048;-94
2023/04/13 01:34:57;;;;;;;0.82;0.20;;;6.80;94.10;;;;;;4750606;30;20051;-93
2023/04/13 01:37:26;;;;;;;2.38;0.40;;;6.80;94.30;;;;;;4749943;30;20060;-92
2023/04/13 01:39:55;;;;;;;1.35;0.30;;;6.80;94.40;;;;;;4756020;30;20066;-93
2023/04/13 01:42:40;;;;;;;1.00;0.40;;;6.80;94.60;;;;;;4752653;30;20134;-92
2023/04/13 01:45:19;;;;;;;0.80;0.25;;;6.80;94.90;;;;;;4761010;30;20097;-92
2023/04/13 01:48:09;;;;;;;1.88;0.30;;;6.80;95.00;;;;;;4764700;30;20055;-93
2023/04/13 01:51:15;;;;;;;2.80;0.73;;;6.80;94.90;;;;;;4747680;30;20114;-92
2023/04/13 01:54:10;;;;;;;1.40;0.30;;;6.80;95.10;;;;;;4772985;30;20425;-93
2023/04/13 01:56:41;;;;;;;2.85;0.40;;;6.80;95.20;;;;;;4769681;30;20052;-92
2023/04/13 01:59:12;;;;;;;0.93;0.40;;;6.80;95.20;;;;;;4747560;30;20059;-94
2023/04/13 02:01:41;;;;;;;1.75;0.40;;;6.90;95.30;;;;;;4744533;30;20537;-92
2023/04/13 02:04:09;;;;;;;1.42;0.52;;;6.90;95.30;;;;;;4750360;30;20058;-93
2023/04/13 02:06:41;;;;;;;1.40;0.35;;;6.90;95.20;;;;;;4747549;30;20143;-93
2023/04/13 02:09:09;;;;;;;1.52;0.68;;;6.90;95.30;;;;;;4754532;30;20133;-92
2023/04/13 02:11:37;;;;;;;1.27;0.30;;;6.90;95.40;;;;;;4753172;30;20807;-93
2023/04/13 02:14:06;;;;;;;2.70;0.32;;;6.90;95.40;;;;;;4753302;30;20473;-94
2023/04/13 02:16:34;;;;;;;0.90;0.30;;;7.00;95.50;;;;;;4753260;30;20082;-95
2023/04/13 02:19:01;;;;;;;1.83;0.40;;;7.00;95.70;;;;;;4753104;30;20063;-95
2023/04/13 02:21:29;;;;;;;1.60;0.40;;;7.00;95.90;;;;;;4753638;30;20143;-95
2023/04/13 02:23:56;;;;;;;2.65;0.30;;;6.90;96.10;;;;;;4753081;30;20048;-93
2023/04/13 02:26:29;;;;;;;2.30;0.40;;;6.90;96.30;;;;;;4752380;30;20143;-95
2023/04/13 02:28:56;;;;;;;3.05;0.30;;;7.00;96.10;;;;;;4753112;30;20119;-94
2023/04/13 02:31:24;;;;;;;1.83;0.30;;;7.00;96.10;;;;;;4753046;30;20056;-95
2023/04/13 02:33:51;;;;;;;1.27;0.20;;;7.00;96.10;;;;;;4753072;30;20110;-95
2023/04/13 02:36:20;;;;;;;1.25;0.25;;;7.00;96.00;;;;;;4738156;30;20059;-95
2023/04/13 02:38:55;;;;;;;3.30;0.50;;;7.00;96.20;;;;;;4752907;30;20064;-95
2023/04/13 02:41:28;;;;;;;1.25;0.30;;;7.00;96.30;;;;;;4752798;30;20067;-95
2023/04/13 02:43:56;;;;;;;1.75;0.30;;;7.00;96.50;;;;;;4753829;30;20575;-96
2023/04/13 02:46:26;;;;;;;2.35;0.40;;;7.00;96.40;;;;;;4744522;30;20499;-84
2023/04/13 02:49:02;;;;;;;0.90;0.25;;;7.00;96.50;;;;;;4739187;30;20149;-84
2023/04/13 02:51:35;;;;;;;3.58;0.50;;;7.00;96.40;;;;;;4737619;30;20076;-85
2023/04/13 02:54:03;;;;;;;2.50;0.50;;;7.10;96.50;;;;;;4749994;30;20052;-85
2023/04/13 02:56:36;;;;;;;1.42;0.40;;;7.10;96.60;;;;;;4741672;30;20052;-84
2023/04/13 02:59:05;;;;;;;1.83;0.68;;;7.10;96.60;;;;;;4749262;30;20048;-84
2023/04/13 03:01:32;;;;;;;2.10;0.30;;;7.10;96.80;;;;;;4752353;30;20146;-85
2023/04/13 03:04:01;;;;;;;3.50;0.35;;;7.00;96.80;;;;;;4751280;30;20056;-86
2023/04/13 03:06:30;;;;;;;2.22;0.38;;;7.10;96.90;;;;;;4756387;30;20052;-85
2023/04/13 03:09:00;;;;;;;3.00;0.50;;;7.00;97.00;;;;;;4750751;30;20135;-85
2023/04/13 03:11:42;;;;;;;1.50;0.57;;;7.00;97.10;;;;;;4751237;30;20052;-86
2023/04/13 03:14:20;;;;;;;1.45;0.43;;;7.00;97.30;;;;;;4730435;30;20567;-85
2023/04/13 03:17:08;;;;;;;0.93;0.30;;;6.90;97.20;;;;;;4738392;30;20521;-85
2023/04/13 03:19:38;;;;;;;1.20;0.38;;;6.90;97.20;;;;;;4727083;30;20506;-85
2023/04/13 03:22:07;;;;;;;4.68;0.43;;;6.90;97.30;;;;;;4733376;30;20061;-85
2023/04/13 03:24:40;;;;;;;2.33;0.50;;;6.80;97.30;;;;;;4728221;30;20139;-86
2023/04/13 03:27:08;;;;;;;2.80;0.30;;;6.80;97.30;;;;;;4753875;30;20047;-85
2023/04/13 03:29:42;;;;;;;1.15;0.52;;;6.70;97.30;;;;;;4741769;30;20139;-85
2023/04/13 03:32:16;;;;;;;1.75;0.40;;;6.70;97.30;;;;;;4749785;30;20135;-85
2023/04/13 03:34:48;;;;;;;1.25;0.40;;;6.70;97.30;;;;;;4744858;30;20055;-85
2023/04/13 03:37:15;;;;;;;2.08;0.40;;;6.60;97.40;;;;;;4767626;30;20044;-85
2023/04/13 03:39:43;;;;;;;2.30;0.70;;;6.60;97.40;;;;;;4754305;30;20084;-85
2023/04/13 03:42:14;;;;;;;1.45;0.60;;;6.50;97.40;;;;;;4741539;30;20156;-85
2023/04/13 03:44:50;;;;;;;2.92;0.60;;;6.50;97.50;;;;;;4737232;30;20124;-86
2023/04/13 03:47:17;;;;;;;1.73;0.60;;;6.40;97.50;;;;;;4764419;30;20060;-85
2023/04/13 03:49:44;;;;;;;0.80;0.50;;;6.40;97.50;;;;;;4757712;30;20138;-94
2023/04/13 03:52:12;;;;;;;3.03;0.88;;;6.40;97.50;;;;;;4758448;30;20079;-95
2023/04/13 03:54:46;;;;;;;1.73;0.60;;;6.30;97.60;;;;;;4771959;30;20051;-95
2023/04/13 03:57:14;;;;;;;3.28;0.60;;;6.30;97.60;;;;;;4773129;30;20078;-95
2023/04/13 03:59:44;;;;;;;1.60;0.40;;;6.30;97.50;;;;;;4758440;30;20043;-95
2023/04/13 04:02:15;;;;;;;1.90;0.30;;;6.30;97.50;;;;;;4758350;30;20085;-95
2023/04/13 04:04:43;;;;;;;1.60;0.38;;;6.20;97.50;;;;;;4743561;30;20489;-95
2023/04/13 04:07:12;;;;;;;1.58;0.50;;;6.20;97.50;;;;;;4773010;30;20126;-94
2023/04/13 04:09:40;;;;;;;1.55;0.30;;;6.20;97.60;;;;;;4758390;30;20052;-94
2023/04/13 04:12:08;;;;;;;4.18;0.68;;;6.20;97.50;;;;;;4773335;30;20091;-95
2023/04/13 04:14:42;;;;;;;1.52;0.40;;;6.20;97.60;;;;;;4758648;30;20143;-95
2023/04/13 04:17:17;;;;;;;0.70;0.30;;;6.10;97.50;;;;;;4771682;30;20051;-93
2023/04/13 04:19:48;;;;;;;1.08;0.40;;;6.10;97.50;;;;;;4761791;30;20064;-93
2023/04/13 04:22:20;;;;;;;1.33;0.50;;;6.10;97.60;;;;;;4775780;30;20052;-93
2023/04/13 04:24:48;;;;;;;1.67;0.40;;;6.10;97.50;;;;;;4775968;30;20056;-93
2023/04/13 04:27:16;;;;;;;1.20;0.30;;;6.10;97.50;;;;;;4772962;30;20057;-94
2023/04/13 04:29:50;;;;;;;3.20;0.63;;;6.20;97.50;;;;;;4743751;30;20052;-94
2023/04/13 04:32:25;;;;;;;1.40;0.52;;;6.20;97.50;;;;;;4771434;30;20058;-95
2023/04/13 04:34:54;;;;;;;1.35;0.40;;;6.20;97.50;;;;;;4757711;30;20059;-94
2023/04/13 04:37:24;;;;;;;1.50;0.30;;;6.30;97.50;;;;;;4760011;30;20109;-93
2023/04/13 04:40:05;;;;;;;1.42;0.40;;;6.30;97.30;;;;;;4761034;30;20055;-94
2023/04/13 04:42:32;;;;;;;1.95;0.50;;;6.40;97.20;;;;;;4748273;30;20064;-93
2023/04/13 04:45:07;;;;;;;1.45;0.40;;;6.30;97.20;;;;;;4739775;30;20060;-94
2023/04/13 04:47:42;;;;;;;0.80;0.30;;;6.30;97.20;;;;;;4736514;30;20141;-94
2023/04/13 04:50:16;;;;;;;1.23;0.30;;;6.30;97.20;;;;;;4736283;30;20114;-94
2023/04/13 04:52:51;;;;;;;2.42;0.60;;;6.20;97.30;;;;;;4736866;30;20139;-95
2023/04/13 04:55:22;;;;;;;1.65;0.50;;;6.20;97.30;;;;;;4736483;30;20063;-94
2023/04/13 04:57:49;;;;;;;2.67;0.65;;;6.20;97.40;;;;;;4736649;30;20052;-94
2023/04/13 05:00:19;;;;;;;3.50;0.68;;;6.30;97.30;;;;;;4737587;30;20053;-95
2023/04/13 05:02:59;;;;;;;1.85;0.60;;;6.30;97.30;;;;;;4735205;30;20167;-95
2023/04/13 05:05:30;;;;;;;1.75;0.60;;;6.30;97.30;;;;;;4736904;30;20099;-94
2023/04/13 05:08:03;;;;;;;3.50;0.90;;;6.40;97.20;;;;;;4737014;30;20533;-94
2023/04/13 05:10:33;;;;;;;2.75;1.08;;;6.40;97.20;;;;;;4736608;30;20456;-95
2023/04/13 05:13:01;;;;;;;3.00;1.17;;;6.50;97.20;;;;;;4736613;30;20056;-94
2023/04/13 05:15:29;;;;;;;5.07;1.50;;;6.50;97.20;;;;;;4736814;30;20057;-95
2023/04/13 05:18:01;;;;;;;5.38;1.75;;;6.60;97.30;;;;;;4737193;30;20087;-95
2023/04/13 05:20:29;;;;;;;5.38;1.73;;;6.60;97.30;;;;;;4736575;30;20057;-94
2023/04/13 05:23:01;;;;;;;4.03;1.80;;;6.60;97.20;;;;;;4736915;30;20473;-93
2023/04/13 05:25:32;;;;;;;5.28;2.40;;;6.60;97.20;;;;;;4736942;30;20112;-94
2023/04/13 05:28:04;;;;;;;3.55;1.42;;;6.60;97.20;;;;;;4736054;30;20053;-94
2023/04/13 05:30:32;;;;;;;3.58;1.20;;;6.60;97.20;;;;;;4736288;30;20063;-94
2023/04/13 05:33:04;;;;;;;4.10;1.85;;;6.60;97.20;;;;;;4736225;30;20072;-94
2023/04/13 05:35:36;;;;;;;4.25;1.80;;;6.70;97.20;;;;;;4754657;30;20048;-94
2023/04/13 05:38:05;;;;;;;5.07;2.08;;;6.70;97.20;;;;;;4753953;30;20048;-94
2023/04/13 05:40:34;;;;;;;4.80;2.20;;;6.80;97.20;;;;;;4738936;30;20109;-94
2023/04/13 05:43:03;;;;;;;7.80;2.35;;;6.80;97.20;;;;;;4753999;30;20514;-94
2023/04/13 05:45:38;;;;;;;3.97;1.92;;;6.80;97.10;;;;;;4738830;30;20113;-94
2023/04/13 05:48:13;;;;;;;6.47;2.20;;;6.90;97.20;;;;;;4753590;30;20076;-94
2023/04/13 05:50:45;;;;;;;4.15;1.75;;;6.90;97.10;;;;;;4753963;30;20585;-94
2023/04/13 05:53:13;;;;;;;3.20;1.80;;;6.90;97.10;;;;;;4753433;30;20123;-93
2023/04/13 05:55:45;;;;;;;;;;;6.80;97.10;;;;;;4739095;30;20071;-94
2023/04/13 05:58:15;;;;;;;3.28;1.52;;;6.90;97.20;;;;;;4738585;30;19969;-93
2023/04/13 06:00:42;;;;;;;5.35;2.15;;;6.90;97.20;;;;;;4752838;30;20052;-94
2023/04/13 06:03:17;;;;;;;4.82;2.13;;;7.10;97.10;;;;;;4753993;30;20052;-94
2023/04/13 06:05:44;;;;;;;3.87;1.63;;;7.30;97.00;;;;;;4753839;30;20049;-94
2023/04/13 06:08:13;;;;;;;3.10;1.45;;;7.40;96.80;;;;;;4717954;30;20298;-93
2023/04/13 06:10:43;;;;;;;3.60;1.50;;;7.40;96.70;;;;;;4774875;29;20064;-93
2023/04/13 06:13:12;;;;;;;3.60;1.63;;;7.50;96.60;;;;;;4764437;30;20564;-93
2023/04/13 06:15:39;;;;;;;3.72;1.42;;;7.50;96.60;;;;;;4766087;30;20060;-94
2023/04/13 06:18:07;;;;;;;5.90;2.40;;;7.60;96.50;;;;;;4760795;30;20560;-94
2023/04/13 06:20:38;;;;;;;5.53;1.77;;;7.60;96.60;;;;;;4738853;30;20117;-93
2023/04/13 06:23:06;;;;;;;5.95;2.22;;;7.60;96.60;;;;;;4753009;30;20056;-94
2023/04/13 06:25:34;;;;;;;5.65;2.38;;;7.60;96.60;;;;;;4738122;30;20048;-94
2023/04/13 06:28:03;;;;;;;4.93;1.75;;;7.50;96.60;;;;;;4752752;30;20056;-93
2023/04/13 06:30:33;;;;;;;8.85;2.90;;;7.50;96.60;;;;;;4752726;30;20564;-93
2023/04/13 06:33:11;;;;;;;7.35;2.40;;;7.50;96.70;;;;;;4738877;30;20564;-95
2023/04/13 06:35:39;;;;;;;6.88;3.50;;;7.50;96.70;;;;;;4739124;30;20052;-94
2023/04/13 06:38:08;;;;;;;6.43;3.13;;;7.50;96.80;;;;;;4739068;30;20510;-94
2023/04/13 06:40:48;;;;;;;7.85;3.70;;;7.40;96.90;;;;;;4751901;30;20049;-94
2023/04/13 06:43:15;;;;;;;7.13;3.53;;;7.40;96.90;;;;;;4753379;30;20112;-93
2023/04/13 06:46:18;;;;;;;6.78;3.10;;;7.40;97.00;;;;;;4762346;30;20061;-93
2023/04/13 06:48:49;;;;;;;6.43;2.90;;;7.40;97.00;;;;;;4752413;30;20048;-93
2023/04/13 06:51:20;;;;;;;6.32;2.72;;;7.40;97.00;;;;;;4752724;30;20055;-94
2023/04/13 06:53:48;;;;;;;6.70;2.80;;;7.40;96.90;;;;;;4752859;30;20059;-94
2023/04/13 06:56:15;;;;;;;5.07;2.65;;;7.30;96.90;;;;;;4752573;30;20062;-93
2023/04/13 06:58:46;;;;;;;5.90;2.70;;;7.30;97.00;;;;;;4752399;30;20048;-94
2023/04/13 07:01:14;;;;;;;5.30;2.47;;;7.30;97.00;;;;;;4752726;30;20052;-94
2023/04/13 07:03:43;;;;;;;7.75;2.70;;;7.30;97.00;;;;;;4737902;30;20083;-86
2023/04/13 07:06:15;;;;;;;5.97;2.22;;;7.20;97.00;;;;;;4750433;30;20113;-85
2023/04/13 07:08:42;;;;;;;4.80;2.78;;;7.30;97.10;;;;;;4736093;30;20058;-84
2023/04/13 07:11:13;;;;;;;5.15;2.45;;;7.20;97.30;;;;;;4739271;30;20044;-85
2023/04/13 07:13:43;;;;;;;4.80;2.22;;;7.20;97.40;;;;;;4754065;30;20071;-85
2023/04/13 07:16:20;;;;;;;3.75;1.80;;;7.10;97.40;;;;;;4745008;30;20060;-86
2023/04/13 07:18:53;;;;;;;3.28;1.70;;;7.10;97.50;;;;;;4755549;30;20118;-87
2023/04/13 07:21:23;;;;;;;4.45;1.20;;;7.10;97.50;;;;;;4759212;30;20060;-87
2023/04/13 07:24:00;;;;;;;4.65;1.73;;;7.20;97.50;;;;;;4732001;30;20053;-88
2023/04/13 07:26:29;;;;;;;5.10;1.85;;;7.10;97.50;;;;;;4756503;30;20045;-85
2023/04/13 07:28:58;;;;;;;5.05;1.85;;;7.20;97.60;;;;;;4748902;30;20072;-83
2023/04/13 07:31:30;;;;;;;3.95;2.00;;;7.10;97.60;;;;;;4717783;30;20129;-83
2023/04/13 07:34:00;;;;;;;4.13;2.05;;;7.10;97.70;;;;;;4739982;30;20056;-85
2023/04/13 07:36:33;;;;;;;3.80;1.45;;;7.10;97.80;;;;;;4758556;30;20509;-86
2023/04/13 07:39:09;;;;;;;3.97;1.67;;;7.10;97.80;;;;;;4745211;30;20067;-86
2023/04/13 07:41:45;;;;;;;4.18;2.42;;;7.20;97.90;;;;;;4754106;30;20113;-85
2023/04/13 07:44:17;;;;;;;3.55;1.27;;;7.30;97.90;;;;;;4750146;30;20052;-87
2023/04/13 07:46:48;;;;;;;2.08;1.08;;;7.40;97.80;;;;;;4751307;30;20103;-85
2023/04/13 07:49:27;;;;;;;5.53;1.63;;;7.60;97.70;;;;;;4740989;30;20139;-86
2023/04/13 07:51:58;;;;;;;5.38;1.58;;;7.60;97.60;;;;;;4753205;30;20474;-84
2023/04/13 07:54:29;;;;;;;3.17;1.20;;;7.70;97.70;;;;;;4753448;30;20060;-84
2023/04/13 07:56:58;;;;;;;1.85;0.77;;;7.60;97.70;;;;;;4752367;30;20060;-83
2023/04/13 07:59:29;;;;;;;5.78;2.25;;;7.70;97.70;;;;;;4756252;30;20139;-83
2023/04/13 08:01:58;;;;;;;3.10;1.23;;;7.70;97.70;;;;;;4742460;30;20048;-83
2023/04/13 08:04:29;;;;;;;3.30;1.30;;;7.80;97.70;;;;;;4738969;30;20056;-83
2023/04/13 08:07:02;;;;;;;5.35;1.90;;;7.90;97.70;;;;;;4753037;30;20310;-84
2023/04/13 08:09:39;;;;;;;5.60;2.55;;;8.20;97.70;;;;;;4752557;30;20065;-83
2023/04/13 08:12:12;;;;;;;7.38;2.63;;;8.40;97.60;;;;;;4753866;30;20395;-84
2023/04/13 08:14:41;;;;;;;5.70;1.70;;;8.50;97.40;;;;;;4741913;30;20074;-84
2023/04/13 08:17:10;;;;;;;5.25;2.30;;;8.50;97.40;;;;;;4738715;30;20164;-83
2023/04/13 08:19:39;;;;;;;5.78;1.65;;;8.50;97.30;;;;;;4771256;30;20060;-84
2023/04/13 08:22:10;;;;;;;4.75;1.50;;;8.50;97.30;;;;;;4761536;30;20060;-83
2023/04/13 08:24:37;;;;;;;7.18;2.40;;;8.50;97.30;;;;;;4751342;30;20395;-84
2023/04/13 08:27:08;;;;;;;7.20;2.50;;;8.50;97.40;;;;;;4754440;30;20510;-84
2023/04/13 08:29:38;;;;;;;8.55;2.60;;;8.50;97.30;;;;;;4751499;30;20052;-84
2023/04/13 08:32:21;;;;;;;6.28;1.52;;;8.50;97.30;;;;;;4758626;30;20052;-93
2023/04/13 08:34:51;;;;;;;5.85;1.77;;;8.50;97.30;;;;;;4749358;30;20064;-83
2023/04/13 08:37:21;;;;;;;6.97;2.33;;;8.40;97.40;;;;;;4739551;30;20056;-87
2023/04/13 08:48:26;;;;;;;6.32;1.75;;;8.50;97.40;;;;;;4686087;30;20058;-85
2023/04/13 08:51:20;;;;;;;5.75;1.70;;;8.40;97.50;;;;;;4722299;30;20048;-83
2023/04/13 08:53:52;;;;;;;7.45;1.73;;;8.50;97.50;;;;;;4722554;30;20053;-82
2023/04/13 08:56:26;;;;;;;8.13;2.10;;;8.60;97.80;;;;;;4733931;30;20049;-83
2023/04/13 08:59:16;;;;;;;9.02;1.65;;;8.70;97.50;;;;;;4741220;30;20518;-83
2023/04/13 09:01:46;;;;;;;7.47;1.75;;;8.80;97.40;;;;;;4719115;30;20075;-83
2023/04/13 09:04:17;;;;;;;6.97;1.52;;;8.90;97.30;;;;;;4714248;30;20065;-83
2023/04/13 09:06:50;;;;;;;5.72;1.10;;;9.00;97.20;;;;;;4727760;30;20454;-83
2023/04/13 09:09:19;;;;;;;3.92;1.10;;;9.20;97.10;;;;;;4719058;30;20523;-83
2023/04/13 09:11:46;;;;;;;7.85;2.28;;;9.30;96.90;;;;;;4730538;30;20144;-83
2023/04/13 09:14:20;;;;;;;6.97;1.55;;;9.40;96.70;;;;;;4744529;30;20056;-83
2023/04/13 09:16:50;;;;;;;7.07;1.73;;;9.40;96.60;;;;;;4745152;30;20060;-83
2023/04/13 09:19:33;;;;;;;8.25;1.88;;;9.50;96.40;;;;;;4741986;30;20052;-83
2023/04/13 09:22:15;;;;;;;9.82;1.10;;;9.50;96.30;;;;;;4738203;30;20057;-83
2023/04/13 09:24:43;;;;;;;8.38;1.13;;;9.50;96.20;;;;;;4751799;30;20565;-83
2023/04/13 09:27:22;;;;;;;9.00;1.73;;;9.60;96.10;;;;;;4756315;30;20498;-83
2023/04/13 09:29:55;;;;;;;11.07;1.63;;;9.70;95.90;;;;;;4751654;30;20055;-83
2023/04/13 09:32:25;;;;;;;9.73;2.30;;;9.80;95.30;;;;;;4737390;30;20076;-83
2023/04/13 09:35:02;;;;;;;7.00;1.00;;;9.70;94.90;;;;;;4742008;30;20056;-83
2023/04/13 09:37:33;;;;;;;9.82;1.65;;;9.40;95.30;;;;;;4751643;30;20076;-83
2023/04/13 09:40:12;;;;;;;9.27;1.17;;;9.20;95.70;;;;;;4739320;30;20063;-83
2023/04/13 09:42:55;;;;;;;3.60;0.70;;;9.20;96.00;;;;;;4754558;30;20386;-83
2023/04/13 09:45:36;;;;;;;11.07;1.23;;;9.30;96.20;;;;;;4752211;30;20521;-83
2023/04/13 09:48:05;;;;;;;5.05;1.27;;;9.40;96.10;;;;;;4763487;30;20158;-83
2023/04/13 09:50:35;;;;;;;10.85;1.15;;;9.40;95.90;;;;;;4753828;30;20074;-83
2023/04/13 09:53:05;;;;;;;10.07;1.73;;;9.30;95.80;;;;;;4745751;30;20514;-83
2023/04/13 09:55:35;;;;;;;8.38;1.20;;;9.30;96.00;;;;;;4736052;30;20491;-84
2023/04/13 09:58:14;;;;;;;4.18;1.25;;;9.30;96.00;;;;;;4741688;30;20083;-83
2023/04/13 10:00:45;;;;;;;7.55;1.58;;;9.30;96.00;;;;;;4739472;30;20060;-83
2023/04/13 10:03:14;;;;;;;7.47;1.08;;;9.40;96.00;;;;;;4751147;30;20060;-83
2023/04/13 10:05:43;;;;;;;7.15;1.00;;;9.50;95.70;;;;;;4740039;30;20058;-83
2023/04/13 10:08:26;;;;;;;9.73;1.20;;;9.60;95.40;;;;;;4750216;30;20451;-83
2023/04/13 10:11:10;;;;;;;9.48;1.38;;;9.50;94.90;;;;;;4738040;30;20494;-83
2023/04/13 10:13:48;;;;;;;7.30;1.30;;;9.70;94.70;;;;;;4751138;30;20105;-83
2023/04/13 10:16:35;;;;;;;10.57;1.80;;;9.80;94.30;;;;;;4741366;30;20070;-84
2023/04/13 10:19:22;;;;;;;9.27;1.77;;;10.00;94.00;;;;;;4734157;30;20066;-84
2023/04/13 10:21:51;;;;;;;7.20;1.10;;;10.30;93.40;;;;;;4743285;30;20129;-84
2023/04/13 10:24:22;;;;;;;8.45;1.20;;;10.60;93.30;;;;;;4743084;30;20079;-84
2023/04/13 10:26:54;;;;;;;8.45;1.00;;;10.90;92.50;;;;;;4750130;30;20110;-95
2023/04/13 10:29:31;;;;;;;4.32;1.05;;;11.00;91.70;;;;;;4751159;30;20056;-94
2023/04/13 10:32:34;;;;;;;7.88;0.95;;;11.00;91.60;;;;;;4750006;30;20143;-91
2023/04/13 10:35:11;;;;;;;4.70;0.50;;;11.00;91.20;;;;;;4760160;30;20060;-85
2023/04/13 10:37:39;;;;;;;6.05;1.80;;;11.00;91.50;;;;;;4743166;30;20060;-87
2023/04/13 10:40:09;;;;;;;5.47;1.00;;;10.90;91.60;;;;;;4732171;30;20135;-83
2023/04/13 10:42:41;;;;;;;5.70;0.80;;;10.90;91.70;;;;;;4762320;30;20147;-87
2023/04/13 10:45:24;;;;;;;5.47;1.15;;;10.90;91.70;;;;;;4752722;30;20064;-87
2023/04/13 10:47:53;;;;;;;10.07;1.30;;;10.80;91.70;;;;;;4741920;30;20074;-87
2023/04/13 10:50:22;;;;;;;4.85;0.77;;;10.70;91.80;;;;;;4754268;30;20064;-87
2023/04/13 10:53:04;;;;;;;7.40;0.95;;;10.60;91.60;;;;;;4757041;30;20056;-85
2023/04/13 10:55:32;;;;;;;9.35;1.65;;;10.30;92.10;;;;;;4757687;30;20511;-83
2023/04/13 10:58:12;;;;;;;8.60;1.23;;;10.00;92.80;;;;;;4762258;30;20134;-83
2023/04/13 11:00:44;;;;;;;7.28;0.90;;;10.10;93.10;;;;;;4759048;30;20176;-83
2023/04/13 11:03:17;;;;;;;6.80;1.38;;;10.10;93.10;;;;;;4753415;30;20151;-82
2023/04/13 11:05:46;;;;;;;;;;;10.10;93.30;;;;;;4754428;30;20080;-84
2023/04/13 11:08:18;;;;;;;9.18;1.25;;;10.00;93.40;;;;;;4762754;30;19926;-83
2023/04/13 11:10:56;;;;;;;5.00;1.00;;;9.80;93.50;;;;;;4756445;30;20118;-84
2023/04/13 11:13:27;;;;;;;13.35;1.08;;;9.70;93.70;;;;;;4765131;30;20198;-84
2023/04/13 11:16:02;;;;;;;6.90;0.90;;;9.60;94.00;;;;;;4748288;30;20113;-84
2023/04/13 11:18:30;;;;;;;8.38;0.90;;;9.70;94.10;;;;;;4748200;30;20391;-85
2023/04/13 11:20:58;;;;;;;9.73;1.40;;;9.80;94.20;;;;;;4742120;30;20628;-85
2023/04/13 11:23:33;;;;;;;9.13;1.40;;;10.10;94.00;;;;;;4742340;30;20052;-86
2023/04/13 11:26:03;;;;;;;7.95;1.10;;;10.20;93.30;;;;;;4756953;30;20044;-84
2023/04/13 11:28:41;;;;;;;14.13;0.95;;;10.40;93.20;;;;;;4750043;30;20044;-84
2023/04/13 11:31:10;;;;;;;5.45;0.80;;;10.80;92.40;;;;;;4746961;30;20502;-84
2023/04/13 11:33:38;;;;;;;10.50;1.23;;;10.90;91.80;;;;;;4753319;30;20072;-84
2023/04/13 11:36:08;;;;;;;7.55;1.52;;;11.40;91.50;;;;;;4749215;30;20589;-85
2023/04/13 11:38:40;;;;;;;5.07;0.73;;;11.90;90.60;;;;;;4741250;30;20052;-85
2023/04/13 11:41:08;;;;;;;4.85;0.70;;;12.30;89.50;;;;;;4764373;30;20060;-86
2023/04/13 11:43:44;;;;;;;5.25;1.02;;;12.70;88.40;;;;;;4749311;30;20051;-85
2023/04/13 11:46:14;;;;;;;8.60;0.82;;;13.20;86.70;;;;;;4760541;30;20614;-90
2023/04/13 11:48:43;;;;;;;6.43;0.85;;;13.30;84.50;;;;;;4752735;30;20514;-86
2023/04/13 11:51:13;;;;;;;6.28;0.70;;;13.10;83.20;;;;;;4738686;30;20512;-85
2023/04/13 11:53:40;;;;;;;6.75;1.20;;;12.90;83.10;;;;;;4746113;30;20467;-85
2023/04/13 11:56:08;;;;;;;6.05;1.10;;;12.70;82.80;;;;;;4759008;30;20058;-85
2023/04/13 11:58:38;;;;;;;4.95;0.80;;;12.70;83.30;;;;;;4756593;30;20128;-84
2023/04/13 12:01:08;;;;;;;7.10;0.93;;;12.70;83.30;;;;;;4753524;30;20060;-84
2023/04/13 12:03:39;;;;;;;5.95;1.05;;;12.70;83.50;;;;;;4730096;30;20499;-83
2023/04/13 12:06:26;;;;;;;6.43;0.80;;;12.60;83.80;;;;;;4744513;30;20120;-83
2023/04/13 12:09:12;;;;;;;5.88;0.90;;;13.00;82.70;;;;;;4752511;30;20466;-82
2023/04/13 12:11:48;;;;;;;4.95;0.63;;;13.20;80.40;;;;;;4735980;30;20040;-85
2023/04/13 12:14:31;;;;;;;5.50;1.17;;;12.90;78.50;;;;;;4747206;30;20048;-83
2023/04/13 12:17:18;;;;;;;4.65;0.77;;;12.70;80.10;;;;;;4738450;30;20092;-84
2023/04/13 12:20:06;;;;;;;5.15;0.80;;;12.60;80.20;;;;;;4749003;30;20143;-83
2023/04/13 12:22:43;;;;;;;6.07;0.93;;;12.50;79.80;;;;;;4731128;30;20119;-83
2023/04/13 12:25:26;;;;;;;8.52;1.13;;;12.50;80.50;;;;;;4744724;30;20063;-83
2023/04/13 12:28:02;;;;;;;5.07;0.80;;;12.50;80.40;;;;;;4745146;30;20072;-84
2023/04/13 12:30:30;;;;;;;4.57;0.85;;;12.50;79.30;;;;;;4726796;30;20048;-84
2023/04/13 12:33:00;;;;;;;5.70;0.80;;;12.50;79.00;;;;;;4754511;30;20040;-84
2023/04/13 12:35:27;;;;;;;7.05;0.98;;;12.40;78.00;;;;;;4753888;30;20452;-83
2023/04/13 12:37:54;;;;;;;5.53;0.75;;;12.40;77.90;;;;;;4738352;30;20048;-87
2023/04/13 12:40:22;;;;;;;7.15;0.80;;;12.50;77.40;;;;;;4740499;30;20506;-84
2023/04/13 12:42:49;;;;;;;5.50;0.80;;;12.60;76.60;;;;;;4738070;30;20060;-83
2023/04/13 12:45:19;;;;;;;5.50;0.40;;;12.80;76.20;;;;;;4755915;30;20052;-88
2023/04/13 12:47:46;;;;;;;5.25;0.70;;;12.90;76.00;;;;;;4748421;30;20048;-89
2023/04/13 12:50:15;;;;;;;3.88;0.57;;;13.00;75.70;;;;;;4754948;30;20051;-88
2023/04/13 12:52:43;;;;;;;4.30;0.60;;;12.90;74.90;;;;;;4736748;30;20075;-87
2023/04/13 12:55:10;;;;;;;7.55;0.98;;;12.80;74.60;;;;;;4751277;30;20471;-87
2023/04/13 12:57:38;;;;;;;4.30;0.70;;;12.70;74.70;;;;;;4733043;30;20049;-85
2023/04/13 13:00:09;;;;;;;7.72;1.42;;;12.60;74.40;;;;;;4753049;30;20066;-88
2023/04/13 13:02:37;;;;;;;9.73;1.63;;;12.50;74.30;;;;;;4742542;30;20056;-87
2023/04/13 13:05:11;;;;;;;4.28;0.65;;;12.30;74.70;;;;;;4754812;30;20151;-88
2023/04/13 13:07:42;;;;;;;4.93;0.95;;;12.20;75.30;;;;;;4743339;30;20043;-87
2023/04/13 13:10:47;;;;;;;5.32;0.70;;;11.90;76.30;;;;;;4761195;30;20147;-94
2023/04/13 13:13:38;;;;;;;4.40;0.75;;;11.80;77.70;;;;;;4736817;30;20056;-90
2023/04/13 13:16:51;;;;;;;3.38;0.50;;;11.80;78.30;;;;;;4759864;30;20122;-91
2023/04/13 13:20:07;;;;;;;2.42;0.50;;;11.80;78.30;;;;;;4725989;30;20517;-91
2023/04/13 13:22:55;;;;;;;9.63;1.27;;;12.00;78.70;;;;;;4755943;30;20062;-86
2023/04/13 13:25:26;;;;;;;5.50;1.70;;;12.20;77.40;;;;;;4753133;30;20058;-89
2023/04/13 13:28:17;;;;;;;6.07;0.52;;;12.40;76.00;;;;;;4753735;30;20056;-92
2023/04/13 13:31:00;;;;;;;4.97;1.13;;;12.50;75.80;;;;;;4742389;30;20422;-90
2023/04/13 13:34:21;;;;;;;11.10;1.25;;;12.50;74.80;;;;;;4741987;30;20048;-89